Mostly Cloudy Current Weather (METAR) For London Heathrow Airport

All times on the weather descriptions are local

Observed at 07:20 - (20 mins ago)

Mostly Cloudy

15°C

Mostly Cloudy
Clouds: Few Clouds at 900ft, Broken Clouds at 1,100ft
Wind: 040° at 04 knots, varying from 020° to 080
Visibility: 7,000m
QNH: 1023
Dew Point: 13°C
Runway in Use: Likely Runways 09L/R

Sunrise Today: 06:15
Sunset Today: 19:47

Forecast Weather (TAF) For London Heathrow Airport

Issued at 01:00 - (28 days ago)


Runway in Use: Likely Runways 27L/R

Forecast valid until 01:00 on Tuesday

METAR/TAF RAW METAR / TAF

EGLL 020620Z 04004KT 020V080 7000 FEW009 BKN011 15/13 Q1023 NOSIG

Weather Widget

Put weather from any of our airports on your website with our weather widget.

Find Another Search

Airport Search


Please Wait Please Wait - Loading
Close
Close

Login

Username:

Password:

Remember Me:

Remember me on this computer

Forgotten your password? Get a reset password sent to your registered e-mail address

Close

User Private Message

Subject:

Message: